createdAt,value
2018-09-29T00:06:41.000Z,48.04
2018-09-29T00:16:41.000Z,48.005
2018-09-29T00:26:41.000Z,48.108
2018-09-29T00:36:41.000Z,48.139
2018-09-29T00:46:41.000Z,48.125
2018-09-29T00:56:41.000Z,48.176
2018-09-29T01:06:41.000Z,48.196
2018-09-29T01:16:41.000Z,48.226
2018-09-29T01:26:41.000Z,48.235
2018-09-29T01:36:41.000Z,48.317
2018-09-29T01:46:41.000Z,48.346
2018-09-29T01:56:41.000Z,48.345
2018-09-29T02:06:41.000Z,48.395
2018-09-29T02:16:41.000Z,48.478
2018-09-29T02:26:41.000Z,48.529
2018-09-29T02:36:41.000Z,48.475
2018-09-29T02:46:41.000Z,48.462
2018-09-29T02:56:41.000Z,48.501
2018-09-29T03:06:41.000Z,48.542
2018-09-29T03:16:42.000Z,48.562
2018-09-29T03:26:41.000Z,48.602
2018-09-29T03:36:41.000Z,48.633
2018-09-29T03:46:41.000Z,48.737
2018-09-29T03:56:41.000Z,48.746
2018-09-29T04:06:41.000Z,48.754
2018-09-29T04:16:41.000Z,48.784
2018-09-29T04:26:41.000Z,48.846
2018-09-29T04:36:41.000Z,48.811
2018-09-29T04:46:41.000Z,48.81
2018-09-29T04:56:41.000Z,48.797
2018-09-29T05:06:41.000Z,48.88
2018-09-29T05:16:41.000Z,48.805
2018-09-29T05:26:41.000Z,48.825
2018-09-29T05:36:41.000Z,48.823
2018-09-29T05:46:41.000Z,48.811
2018-09-29T05:56:41.000Z,48.756
2018-09-29T06:06:42.000Z,48.746
2018-09-29T06:16:41.000Z,48.662
2018-09-29T06:26:41.000Z,48.607
2018-09-29T06:36:41.000Z,48.585
2018-09-29T06:46:42.000Z,48.449
2018-09-29T06:56:42.000Z,48.364
2018-09-29T07:06:42.000Z,48.196
2018-09-29T07:16:42.000Z,47.964
2018-09-29T07:26:42.000Z,47.753
2018-09-29T07:36:42.000Z,47.753
2018-09-29T07:46:42.000Z,47.66
2018-09-29T07:56:42.000Z,47.597
2018-09-29T08:06:42.000Z,47.535
2018-09-29T08:16:42.000Z,47.485
2018-09-29T08:26:42.000Z,47.402
2018-09-29T08:36:42.000Z,47.382
2018-09-29T08:46:42.000Z,46.969
2018-09-29T08:56:42.000Z,47.008
2018-09-29T09:06:42.000Z,46.815
2018-09-29T09:16:42.000Z,46.433
2018-09-29T09:26:45.000Z,45.738
2018-09-29T09:36:42.000Z,45.355
2018-09-29T09:46:42.000Z,44.861
2018-09-29T09:56:42.000Z,44.547
2018-09-29T10:06:42.000Z,44.018
2018-09-29T10:16:42.000Z,43.899
2018-09-29T10:26:42.000Z,43.72
2018-09-29T10:36:42.000Z,43.351
2018-09-29T10:46:42.000Z,43.409
2018-09-29T10:56:42.000Z,43.334
2018-09-29T11:06:42.000Z,43.521
2018-09-29T11:16:42.000Z,43.463
2018-09-29T11:26:42.000Z,43.476
2018-09-29T11:36:42.000Z,43.304
2018-09-29T11:46:42.000Z,43.248
2018-09-29T11:56:42.000Z,43.105
2018-09-29T12:06:42.000Z,43.149
2018-09-29T12:16:42.000Z,43.063
2018-09-29T12:26:42.000Z,42.999
2018-09-29T12:36:42.000Z,42.848
2018-09-29T12:46:42.000Z,42.72
2018-09-29T12:56:42.000Z,42.493
2018-09-29T13:06:42.000Z,42.48
2018-09-29T13:16:42.000Z,42.598
2018-09-29T13:26:42.000Z,42.985
2018-09-29T13:36:42.000Z,43.18
2018-09-29T13:46:42.000Z,43.209
2018-09-29T13:56:42.000Z,43.404
2018-09-29T14:06:42.000Z,43.37
2018-09-29T14:16:42.000Z,43.665
2018-09-29T14:26:42.000Z,43.782
2018-09-29T14:36:42.000Z,43.789
2018-09-29T14:46:42.000Z,43.731
2018-09-29T14:56:42.000Z,43.708
2018-09-29T15:06:42.000Z,43.695
2018-09-29T15:16:42.000Z,43.694
2018-09-29T15:26:43.000Z,43.593
2018-09-29T15:36:43.000Z,43.752
2018-09-29T15:46:43.000Z,43.869
2018-09-29T15:56:43.000Z,43.887
2018-09-29T16:06:43.000Z,43.875
2018-09-29T16:16:43.000Z,43.991
2018-09-29T16:26:43.000Z,44.127
2018-09-29T16:36:43.000Z,44.212
2018-09-29T16:46:43.000Z,44.264
2018-09-29T16:56:43.000Z,44.412
2018-09-29T17:06:43.000Z,44.387
2018-09-29T17:16:44.000Z,44.494
2018-09-29T17:26:43.000Z,44.555
2018-09-29T17:36:43.000Z,44.574
2018-09-29T17:46:43.000Z,44.689
2018-09-29T18:06:43.000Z,44.726
2018-09-29T18:16:43.000Z,44.908
2018-09-29T18:26:43.000Z,44.905
2018-09-29T18:36:43.000Z,44.971
2018-09-29T18:46:43.000Z,44.986
2018-09-29T18:56:43.000Z,44.818
2018-09-29T19:06:43.000Z,44.496
2018-09-29T19:16:43.000Z,44.316
2018-09-29T19:26:45.000Z,44.138
2018-09-29T19:36:43.000Z,43.967
2018-09-29T19:46:43.000Z,43.691
2018-09-29T19:56:43.000Z,43.623
2018-09-29T20:06:43.000Z,43.925
2018-09-29T20:16:43.000Z,43.911
2018-09-29T20:26:43.000Z,43.787
2018-09-29T20:36:43.000Z,43.772
2018-09-29T20:46:44.000Z,43.88
2018-09-29T20:56:43.000Z,44.218
2018-09-29T21:06:43.000Z,44.581
2018-09-29T21:16:43.000Z,45.093
2018-09-29T21:26:43.000Z,45.412
2018-09-29T21:36:43.000Z,45.984
2018-09-29T21:56:44.000Z,46.149
2018-09-29T22:06:43.000Z,46.232
2018-09-29T22:16:43.000Z,46.166
2018-09-29T22:26:43.000Z,46.247
2018-09-29T22:36:43.000Z,46.299
2018-09-29T22:46:43.000Z,46.328
2018-09-29T23:06:43.000Z,46.409
2018-09-29T23:16:43.000Z,46.471
2018-09-29T23:26:46.000Z,46.491
2018-09-29T23:36:43.000Z,46.5
2018-09-29T23:46:43.000Z,46.562
2018-09-29T23:56:43.000Z,46.603
